createdAt,value
2018-12-13T00:00:18.351Z,4.15
2018-12-13T00:02:46.093Z,4.11
2018-12-13T00:05:13.595Z,4.13
2018-12-13T00:07:42.055Z,4.14
2018-12-13T00:10:09.718Z,4.12
2018-12-13T00:12:40.130Z,4.08
2018-12-13T00:15:07.758Z,3.93
2018-12-13T00:17:35.427Z,3.88
2018-12-13T00:20:03.757Z,3.90
2018-12-13T00:22:31.412Z,3.89
2018-12-13T00:24:58.963Z,3.94
2018-12-13T00:27:26.555Z,3.96
2018-12-13T00:29:54.040Z,3.94
2018-12-13T00:32:21.535Z,3.89
2018-12-13T00:34:49.957Z,3.85
2018-12-13T00:37:18.016Z,3.87
2018-12-13T00:39:45.529Z,3.87
2018-12-13T00:42:14.810Z,3.86
2018-12-13T00:44:42.304Z,3.78
2018-12-13T00:47:09.788Z,3.80
2018-12-13T00:49:37.258Z,3.84
2018-12-13T00:52:05.605Z,3.84
2018-12-13T00:54:33.239Z,3.83
2018-12-13T00:57:00.749Z,3.80
2018-12-13T00:59:28.195Z,3.81
2018-12-13T01:01:55.721Z,3.85
2018-12-13T01:04:23.359Z,3.82
2018-12-13T01:06:50.795Z,3.81
2018-12-13T01:09:18.320Z,3.85
2018-12-13T01:11:46.601Z,3.86
2018-12-13T01:14:14.096Z,3.91
2018-12-13T01:16:41.588Z,3.87
2018-12-13T01:19:09.114Z,3.88
2018-12-13T01:21:36.601Z,3.87
2018-12-13T01:24:04.164Z,3.87
2018-12-13T01:26:31.726Z,3.84
2018-12-13T01:28:59.206Z,3.87
2018-12-13T01:31:26.964Z,3.88
2018-12-13T01:33:54.555Z,3.89
2018-12-13T01:36:22.027Z,3.90
2018-12-13T01:38:49.471Z,3.90
2018-12-13T01:41:16.970Z,3.92
2018-12-13T01:43:44.650Z,3.86
2018-12-13T01:46:12.210Z,3.86
2018-12-13T01:48:39.829Z,3.82
2018-12-13T01:51:07.438Z,3.83
2018-12-13T01:53:35.099Z,3.87
2018-12-13T01:56:03.423Z,3.90
2018-12-13T01:58:30.954Z,3.90
2018-12-13T02:00:58.436Z,3.98
2018-12-13T02:03:25.969Z,3.98
2018-12-13T02:05:53.479Z,4.06
2018-12-13T02:08:21.095Z,4.07
2018-12-13T02:10:48.600Z,4.10
2018-12-13T02:13:16.094Z,4.11
2018-12-13T02:15:43.599Z,4.12
2018-12-13T02:18:11.103Z,4.15
2018-12-13T02:20:38.600Z,4.16
2018-12-13T02:23:06.226Z,4.18
2018-12-13T02:25:33.761Z,4.17
2018-12-13T02:28:01.361Z,4.04
2018-12-13T02:30:29.192Z,3.87
2018-12-13T02:32:56.695Z,3.88
2018-12-13T02:35:24.183Z,3.93
2018-12-13T02:37:51.665Z,3.99
2018-12-13T02:40:19.131Z,3.98
2018-12-13T02:42:47.041Z,3.97
2018-12-13T02:45:14.535Z,4.02
2018-12-13T02:47:42.134Z,4.04
2018-12-13T02:50:09.759Z,4.04
2018-12-13T02:52:37.255Z,4.03
2018-12-13T02:55:04.940Z,4.05
2018-12-13T02:57:33.269Z,4.07
2018-12-13T03:00:01.144Z,4.07
2018-12-13T03:02:29.269Z,4.03
2018-12-13T03:04:56.852Z,4.03
2018-12-13T03:07:24.356Z,4.00
2018-12-13T03:09:51.971Z,3.98
2018-12-13T03:12:19.538Z,3.85
2018-12-13T03:14:47.033Z,3.82
2018-12-13T03:17:14.589Z,3.77
2018-12-13T03:19:42.093Z,3.79
2018-12-13T03:22:10.220Z,3.83
2018-12-13T03:24:37.757Z,3.86
2018-12-13T03:27:05.270Z,3.87
2018-12-13T03:29:32.959Z,3.84
2018-12-13T03:32:00.605Z,3.81
2018-12-13T03:34:28.439Z,3.76
2018-12-13T03:36:55.934Z,3.77
2018-12-13T03:39:23.481Z,3.75
2018-12-13T03:41:51.013Z,3.79
2018-12-13T03:44:18.480Z,3.81
2018-12-13T03:46:45.951Z,3.80
2018-12-13T03:49:13.452Z,3.85
2018-12-13T03:51:40.911Z,3.90
2018-12-13T03:54:08.453Z,3.96
2018-12-13T03:56:36.003Z,3.96
2018-12-13T03:59:03.535Z,3.92
2018-12-13T04:01:31.020Z,3.92
2018-12-13T04:03:59.506Z,3.89
2018-12-13T04:06:27.041Z,3.86
2018-12-13T04:08:54.511Z,3.89
2018-12-13T04:11:21.994Z,3.90
2018-12-13T04:13:49.597Z,3.92
2018-12-13T04:16:17.120Z,3.90
2018-12-13T04:18:44.626Z,3.92
2018-12-13T04:21:12.151Z,3.94
2018-12-13T04:23:40.008Z,3.91
2018-12-13T04:26:07.933Z,3.91
2018-12-13T04:28:36.473Z,3.93
2018-12-13T04:31:04.055Z,3.89
2018-12-13T04:33:31.571Z,3.85
2018-12-13T04:35:59.142Z,3.87
2018-12-13T04:38:26.606Z,3.93
2018-12-13T04:40:54.072Z,3.98
2018-12-13T04:43:21.598Z,4.03
2018-12-13T04:45:49.343Z,4.03
2018-12-13T04:48:16.842Z,3.99
2018-12-13T04:50:44.299Z,4.05
2018-12-13T04:53:11.806Z,4.10
2018-12-13T04:55:39.305Z,4.12
2018-12-13T04:58:06.824Z,4.11
2018-12-13T05:00:34.338Z,4.12
2018-12-13T05:03:01.821Z,4.14
2018-12-13T05:05:29.359Z,4.13
2018-12-13T05:07:57.302Z,4.16
2018-12-13T05:10:36.682Z,4.17
2018-12-13T05:13:04.864Z,4.15
2018-12-13T05:15:33.190Z,4.17
2018-12-13T05:18:01.515Z,4.19
2018-12-13T05:20:28.981Z,4.18
2018-12-13T05:22:57.951Z,4.21
2018-12-13T05:25:25.522Z,4.28
2018-12-13T05:27:53.067Z,4.31
2018-12-13T05:30:20.888Z,4.28
2018-12-13T05:32:48.403Z,4.28
2018-12-13T05:35:15.853Z,4.33
2018-12-13T05:37:48.266Z,4.28
2018-12-13T05:40:12.856Z,4.31
2018-12-13T05:42:41.134Z,4.28
2018-12-13T05:47:50.298Z,4.27
2018-12-13T05:50:17.839Z,4.28
2018-12-13T05:52:48.333Z,4.25
2018-12-13T05:55:16.793Z,4.29
2018-12-13T05:57:44.432Z,4.21
2018-12-13T06:00:12.900Z,4.25
2018-12-13T06:02:41.099Z,4.28
2018-12-13T06:05:09.590Z,4.26
2018-12-13T06:07:37.722Z,4.27
2018-12-13T06:10:05.891Z,4.35
2018-12-13T06:12:33.467Z,4.37
2018-12-13T06:15:03.138Z,4.32
2018-12-13T06:17:30.621Z,4.33
2018-12-13T06:19:58.099Z,4.34
2018-12-13T06:22:25.581Z,4.33
2018-12-13T06:24:53.066Z,4.34
2018-12-13T06:27:21.419Z,4.37
2018-12-13T06:29:49.073Z,4.39
2018-12-13T06:32:16.631Z,4.31
2018-12-13T06:34:44.116Z,4.36
2018-12-13T06:37:12.905Z,4.38
2018-12-13T06:39:41.534Z,4.40
2018-12-13T06:42:09.165Z,4.46
2018-12-13T06:44:36.760Z,4.52
2018-12-13T06:47:05.214Z,4.51
2018-12-13T06:49:35.489Z,4.49
2018-12-13T06:52:04.994Z,4.48
2018-12-13T06:54:36.297Z,4.44
2018-12-13T06:57:04.715Z,4.43
2018-12-13T06:59:32.292Z,4.41
2018-12-13T07:02:00.503Z,4.43
2018-12-13T07:04:28.000Z,4.41
2018-12-13T07:06:56.235Z,4.37
2018-12-13T07:09:23.715Z,4.36
2018-12-13T07:11:52.193Z,4.36
2018-12-13T07:14:19.699Z,4.43
2018-12-13T07:16:47.298Z,4.34
2018-12-13T07:19:14.866Z,4.39
2018-12-13T07:21:43.039Z,4.42
2018-12-13T07:24:10.575Z,4.36
2018-12-13T07:26:38.126Z,4.37
2018-12-13T07:29:05.648Z,4.43
2018-12-13T07:31:33.265Z,4.46
2018-12-13T07:34:00.803Z,4.43
2018-12-13T07:36:29.261Z,4.37
2018-12-13T07:38:57.975Z,4.42
2018-12-13T07:41:25.686Z,4.39
2018-12-13T07:43:53.849Z,4.41
2018-12-13T07:46:21.664Z,4.46
2018-12-13T07:48:49.275Z,4.53
2018-12-13T07:51:16.799Z,4.51
2018-12-13T07:53:44.290Z,4.56
2018-12-13T07:56:11.752Z,4.60
2018-12-13T07:58:39.321Z,4.64
2018-12-13T08:01:06.854Z,4.70
2018-12-13T08:03:34.394Z,4.70
2018-12-13T08:06:01.901Z,4.67
2018-12-13T08:08:29.469Z,4.73
2018-12-13T08:10:56.950Z,4.64
2018-12-13T08:13:24.480Z,4.51
2018-12-13T08:15:52.002Z,4.54
2018-12-13T08:18:19.474Z,4.62
2018-12-13T08:20:47.040Z,4.62
2018-12-13T08:23:14.558Z,4.66
2018-12-13T08:25:42.369Z,4.65
2018-12-13T08:28:09.874Z,4.63
2018-12-13T08:30:37.529Z,4.58
2018-12-13T08:33:05.046Z,4.63
2018-12-13T08:35:32.535Z,4.63
2018-12-13T08:38:00.254Z,4.74
2018-12-13T08:40:27.750Z,4.71
2018-12-13T08:42:55.350Z,4.76
2018-12-13T08:45:22.833Z,4.75
2018-12-13T08:47:50.444Z,4.68
2018-12-13T08:50:17.999Z,4.74
2018-12-13T08:52:45.778Z,4.73
2018-12-13T08:55:13.969Z,4.76
2018-12-13T08:57:41.476Z,4.81
2018-12-13T09:00:09.193Z,4.81
2018-12-13T09:02:36.835Z,4.80
2018-12-13T09:05:05.848Z,4.82
2018-12-13T09:07:33.324Z,4.67
2018-12-13T09:10:00.862Z,4.53
2018-12-13T09:12:28.415Z,4.57
2018-12-13T09:14:56.802Z,4.53
2018-12-13T09:17:24.306Z,4.60
2018-12-13T09:19:51.759Z,4.62
2018-12-13T09:22:19.275Z,4.65
2018-12-13T09:24:46.760Z,4.71
2018-12-13T09:27:14.253Z,4.77
2018-12-13T09:29:41.752Z,4.72
2018-12-13T09:32:09.247Z,4.75
2018-12-13T09:34:38.048Z,4.73
2018-12-13T09:37:05.687Z,4.76
2018-12-13T09:39:33.235Z,4.81
2018-12-13T09:42:01.094Z,4.86
2018-12-13T09:44:28.576Z,4.89
2018-12-13T09:46:56.086Z,4.92
2018-12-13T09:49:23.662Z,4.89
2018-12-13T09:51:51.161Z,4.87
2018-12-13T09:54:18.632Z,4.89
2018-12-13T09:56:46.193Z,4.91
2018-12-13T09:59:13.700Z,4.89
2018-12-13T10:01:41.212Z,4.91
2018-12-13T10:04:08.782Z,4.93
2018-12-13T10:06:36.278Z,4.99
2018-12-13T10:09:05.982Z,5.03
2018-12-13T10:11:35.213Z,5.08
2018-12-13T10:14:04.209Z,5.06
2018-12-13T10:16:34.070Z,5.09
2018-12-13T10:19:01.593Z,5.11
2018-12-13T10:21:29.209Z,5.14
2018-12-13T10:23:57.051Z,5.13
2018-12-13T10:26:24.586Z,5.09
2018-12-13T10:28:52.409Z,5.07
2018-12-13T10:31:19.884Z,4.99
2018-12-13T10:33:47.745Z,4.97
2018-12-13T10:36:15.306Z,5.04
2018-12-13T10:38:43.041Z,5.08
2018-12-13T10:41:10.880Z,5.10
2018-12-13T10:43:38.463Z,5.09
2018-12-13T10:46:06.049Z,5.11
2018-12-13T10:48:33.695Z,5.13
2018-12-13T10:51:01.332Z,5.11
2018-12-13T10:53:30.390Z,5.12
2018-12-13T10:55:58.109Z,5.14
2018-12-13T10:58:25.610Z,5.06
2018-12-13T11:00:58.789Z,5.04
2018-12-13T11:03:32.001Z,4.97
2018-12-13T11:05:59.535Z,4.80
2018-12-13T11:08:27.159Z,4.77
2018-12-13T11:10:54.723Z,4.68
2018-12-13T11:13:22.362Z,4.51
2018-12-13T11:15:49.858Z,4.26
2018-12-13T11:18:17.407Z,4.30
2018-12-13T11:20:47.460Z,4.36
2018-12-13T11:23:15.122Z,4.35
2018-12-13T11:25:42.662Z,4.32
2018-12-13T11:31:16.999Z,4.37
2018-12-13T11:33:44.561Z,4.45
2018-12-13T11:36:12.100Z,4.47
2018-12-13T11:38:41.159Z,4.50
2018-12-13T11:41:08.660Z,4.50
2018-12-13T11:43:36.138Z,4.46
2018-12-13T11:46:03.638Z,4.54
2018-12-13T11:48:31.171Z,4.64
2018-12-13T11:50:58.730Z,4.62
2018-12-13T11:53:26.216Z,4.68
2018-12-13T11:55:53.911Z,4.63
2018-12-13T11:58:21.712Z,4.65
2018-12-13T12:00:49.472Z,4.75
2018-12-13T12:03:19.117Z,4.79
2018-12-13T12:05:47.370Z,4.80
2018-12-13T12:08:14.887Z,4.83
2018-12-13T12:10:42.372Z,4.81
2018-12-13T12:13:10.286Z,4.87
2018-12-13T12:15:37.897Z,4.82
2018-12-13T12:18:05.372Z,4.86
2018-12-13T12:20:33.104Z,4.90
2018-12-13T12:23:00.679Z,4.89
2018-12-13T12:25:28.175Z,4.95
2018-12-13T12:27:56.774Z,4.92
2018-12-13T12:30:24.311Z,4.96
2018-12-13T12:32:51.873Z,5.02
2018-12-13T12:35:19.671Z,5.07
2018-12-13T12:37:48.796Z,5.03
2018-12-13T12:40:17.145Z,4.91
2018-12-13T12:42:44.672Z,4.95
2018-12-13T12:45:12.167Z,5.01
2018-12-13T12:47:41.226Z,5.00
2018-12-13T12:50:08.931Z,5.06
2018-12-13T12:52:36.490Z,5.06
2018-12-13T12:55:04.829Z,5.11
2018-12-13T12:57:34.677Z,5.18
2018-12-13T13:00:07.546Z,5.17
2018-12-13T13:02:37.234Z,5.20
2018-12-13T13:05:05.928Z,5.20
2018-12-13T13:07:33.451Z,5.21
2018-12-13T13:10:01.149Z,5.20
2018-12-13T13:12:28.705Z,5.19
2018-12-13T13:14:56.326Z,5.25
2018-12-13T13:17:23.840Z,5.18
2018-12-13T13:19:51.629Z,5.22
2018-12-13T13:22:22.477Z,5.25
2018-12-13T13:24:50.111Z,5.14
2018-12-13T13:27:17.690Z,5.17
2018-12-13T13:29:45.260Z,5.20
2018-12-13T13:32:14.775Z,5.19
2018-12-13T13:34:43.225Z,5.13
2018-12-13T13:37:13.307Z,5.05
2018-12-13T13:39:40.842Z,5.10
2018-12-13T13:42:09.141Z,5.06
2018-12-13T13:44:37.286Z,5.12
2018-12-13T13:47:04.777Z,5.11
2018-12-13T13:49:32.289Z,5.12
2018-12-13T13:51:59.796Z,5.15
2018-12-13T13:54:27.317Z,5.13
2018-12-13T13:56:55.485Z,5.14
2018-12-13T13:59:23.004Z,5.17
2018-12-13T14:01:52.055Z,5.13
2018-12-13T14:04:19.546Z,5.05
2018-12-13T14:06:47.037Z,5.10
2018-12-13T14:09:14.581Z,5.15
2018-12-13T14:11:42.275Z,5.16
2018-12-13T14:14:09.883Z,5.11
2018-12-13T14:16:37.460Z,5.10
2018-12-13T14:19:05.820Z,5.14
2018-12-13T14:21:34.919Z,5.11
2018-12-13T14:24:02.421Z,5.12
2018-12-13T14:26:29.980Z,5.09
2018-12-13T14:28:59.402Z,5.10
2018-12-13T14:31:26.905Z,5.11
2018-12-13T14:33:54.616Z,5.10
2018-12-13T14:36:23.552Z,5.09
2018-12-13T14:38:51.724Z,5.13
2018-12-13T14:41:19.474Z,5.10
2018-12-13T14:43:47.081Z,4.99
2018-12-13T14:46:14.586Z,4.93
2018-12-13T14:48:42.284Z,4.92
2018-12-13T14:51:10.679Z,4.94
2018-12-13T14:53:38.224Z,5.00
2018-12-13T14:56:05.819Z,5.04
2018-12-13T14:58:34.145Z,5.06
2018-12-13T15:01:02.549Z,5.01
2018-12-13T15:03:31.475Z,5.02
2018-12-13T15:05:59.029Z,4.98
2018-12-13T15:08:26.920Z,4.89
2018-12-13T15:10:54.766Z,4.85
2018-12-13T15:13:22.259Z,4.89
2018-12-13T15:15:49.904Z,4.93
2018-12-13T15:18:17.433Z,4.96
2018-12-13T15:20:46.271Z,4.94
2018-12-13T15:23:14.272Z,4.87
2018-12-13T15:25:41.865Z,4.80
2018-12-13T15:28:09.718Z,4.86
2018-12-13T15:30:37.984Z,4.87
2018-12-13T15:33:05.555Z,4.87
2018-12-13T15:35:33.542Z,4.87
2018-12-13T15:38:01.103Z,4.88
2018-12-13T15:40:28.579Z,4.87
2018-12-13T15:42:56.536Z,4.87
2018-12-13T15:45:24.245Z,4.93
2018-12-13T15:47:51.901Z,4.85
2018-12-13T15:50:19.571Z,4.73
2018-12-13T15:52:47.069Z,4.72
2018-12-13T15:55:14.595Z,4.80
2018-12-13T15:57:42.208Z,4.85
2018-12-13T16:00:11.163Z,4.84
2018-12-13T16:02:39.567Z,4.89
2018-12-13T16:05:07.243Z,4.91
2018-12-13T16:07:35.862Z,4.91
2018-12-13T16:10:05.398Z,4.87
2018-12-13T16:12:32.882Z,4.87
2018-12-13T16:15:01.018Z,4.85
2018-12-13T16:17:28.594Z,4.88
2018-12-13T16:19:57.050Z,4.88
2018-12-13T16:22:25.276Z,4.87
2018-12-13T16:24:54.545Z,4.87
2018-12-13T16:27:22.368Z,4.82
2018-12-13T16:29:51.576Z,4.70
2018-12-13T16:32:19.115Z,4.74
2018-12-13T16:34:47.245Z,4.63
2018-12-13T16:37:14.850Z,4.56
2018-12-13T16:39:42.346Z,4.62
2018-12-13T16:42:10.637Z,4.64
2018-12-13T16:44:38.971Z,4.65
2018-12-13T16:47:06.477Z,4.61
2018-12-13T16:49:34.003Z,4.59
2018-12-13T16:52:01.548Z,4.55
2018-12-13T16:54:28.999Z,4.56
2018-12-13T16:56:56.539Z,4.53
2018-12-13T16:59:24.104Z,4.59
2018-12-13T17:01:51.610Z,4.57
2018-12-13T17:04:19.162Z,4.54
2018-12-13T17:06:46.693Z,4.58
2018-12-13T17:09:15.196Z,4.61
2018-12-13T17:11:42.765Z,4.55
2018-12-13T17:14:12.133Z,4.48
2018-12-13T17:16:39.775Z,4.52
2018-12-13T17:19:07.459Z,4.46
2018-12-13T17:21:36.641Z,4.36
2018-12-13T17:24:04.862Z,4.39
2018-12-13T17:26:32.672Z,4.43
2018-12-13T17:29:00.202Z,4.52
2018-12-13T17:31:27.759Z,4.48
2018-12-13T17:33:56.207Z,4.53
2018-12-13T17:36:25.279Z,4.58
2018-12-13T17:38:52.779Z,4.54
2018-12-13T17:41:21.262Z,4.56
2018-12-13T17:43:48.722Z,4.56
2018-12-13T17:46:16.279Z,4.56
2018-12-13T17:48:43.907Z,4.60
2018-12-13T17:51:13.545Z,4.52
2018-12-13T17:53:41.811Z,4.51
2018-12-13T17:56:09.362Z,4.45
2018-12-13T17:58:37.073Z,4.29
2018-12-13T18:01:04.569Z,4.26
2018-12-13T18:03:32.104Z,4.34
2018-12-13T18:05:59.574Z,4.42
2018-12-13T18:08:27.048Z,4.44
2018-12-13T18:10:54.574Z,4.51
2018-12-13T18:13:22.912Z,4.54
2018-12-13T18:15:50.400Z,4.51
2018-12-13T18:18:18.819Z,4.53
2018-12-13T18:20:48.095Z,4.42
2018-12-13T18:23:17.410Z,4.45
2018-12-13T18:25:45.844Z,4.48
2018-12-13T18:28:14.278Z,4.49
2018-12-13T18:30:41.837Z,4.52
2018-12-13T18:33:09.474Z,4.54
2018-12-13T18:35:36.939Z,4.54
2018-12-13T18:38:05.330Z,4.57
2018-12-13T18:40:35.736Z,4.50
2018-12-13T18:43:03.334Z,4.50
2018-12-13T18:45:32.808Z,4.53
2018-12-13T18:48:00.332Z,4.53
2018-12-13T18:50:27.851Z,4.56
2018-12-13T18:52:55.318Z,4.61
2018-12-13T18:55:22.961Z,4.50
2018-12-13T18:57:51.215Z,4.52
2018-12-13T19:00:21.581Z,4.50
2018-12-13T19:02:49.059Z,4.51
2018-12-13T19:05:16.838Z,4.53
2018-12-13T19:07:44.314Z,4.56
2018-12-13T19:10:13.973Z,4.57
2018-12-13T19:12:41.481Z,4.57
2018-12-13T19:15:08.996Z,4.58
2018-12-13T19:17:36.536Z,4.52
2018-12-13T19:20:06.713Z,4.42
2018-12-13T19:22:34.205Z,4.44
2018-12-13T19:25:02.084Z,4.48
2018-12-13T19:27:30.879Z,4.46
2018-12-13T19:29:58.413Z,4.48
2018-12-13T19:32:27.473Z,4.53
2018-12-13T19:35:00.269Z,4.53
2018-12-13T19:37:26.605Z,4.53
2018-12-13T19:39:54.127Z,4.46
2018-12-13T19:42:23.368Z,4.44
2018-12-13T19:44:50.891Z,4.46
2018-12-13T19:47:18.433Z,4.50
2018-12-13T19:49:46.037Z,4.43
2018-12-13T19:52:13.587Z,4.41
2018-12-13T19:54:41.204Z,4.35
2018-12-13T19:57:08.764Z,4.34
2018-12-13T19:59:36.301Z,4.40
2018-12-13T20:02:03.828Z,4.41
2018-12-13T20:04:31.422Z,4.34
2018-12-13T20:06:59.016Z,4.33
2018-12-13T20:09:27.809Z,4.37
2018-12-13T20:11:55.309Z,4.29
2018-12-13T20:14:24.216Z,4.37
2018-12-13T20:16:52.166Z,4.37
2018-12-13T20:19:19.686Z,4.34
2018-12-13T20:21:49.103Z,4.33
2018-12-13T20:24:16.690Z,4.26
2018-12-13T20:26:46.440Z,4.33
2018-12-13T20:29:15.780Z,4.41
2018-12-13T20:31:44.035Z,4.44
2018-12-13T20:34:11.892Z,4.50
2018-12-13T20:36:39.557Z,4.52
2018-12-13T20:39:08.854Z,4.50
2018-12-13T20:41:38.395Z,4.57
2018-12-13T20:44:07.087Z,4.54
2018-12-13T20:46:34.709Z,4.54
2018-12-13T20:49:02.533Z,4.58
2018-12-13T20:51:30.079Z,4.59
2018-12-13T20:54:01.144Z,4.63
2018-12-13T20:56:29.316Z,4.57
2018-12-13T20:58:58.102Z,4.61
2018-12-13T21:01:27.272Z,4.58
2018-12-13T21:03:54.765Z,4.64
2018-12-13T21:06:22.385Z,4.64
2018-12-13T21:08:50.001Z,4.66
2018-12-13T21:11:17.804Z,4.66
2018-12-13T21:13:45.302Z,4.67
2018-12-13T21:16:15.016Z,4.67
2018-12-13T21:18:42.675Z,4.72
2018-12-13T21:21:11.032Z,4.72
2018-12-13T21:23:39.401Z,4.67
2018-12-13T21:26:06.923Z,4.67
2018-12-13T21:28:34.484Z,4.68
2018-12-13T21:31:02.183Z,4.69
2018-12-13T21:33:30.784Z,4.63
2018-12-13T21:35:59.493Z,4.64
2018-12-13T21:38:27.058Z,4.67
2018-12-13T21:40:56.354Z,4.71
2018-12-13T21:43:23.986Z,4.71
2018-12-13T21:45:51.522Z,4.68
2018-12-13T21:48:20.060Z,4.69
2018-12-13T21:50:48.690Z,4.66
2018-12-13T21:53:16.197Z,4.66
2018-12-13T21:55:43.824Z,4.68
2018-12-13T21:58:11.955Z,4.71
2018-12-13T22:00:41.848Z,4.68
2018-12-13T22:03:09.990Z,4.71
2018-12-13T22:05:37.484Z,4.74
2018-12-13T22:08:05.036Z,4.67
2018-12-13T22:10:33.183Z,4.59
2018-12-13T22:13:00.900Z,4.56
2018-12-13T22:15:28.425Z,4.57
2018-12-13T22:17:56.058Z,4.50
2018-12-13T22:20:23.592Z,4.50
2018-12-13T22:22:51.243Z,4.47
2018-12-13T22:25:19.022Z,4.39
2018-12-13T22:27:47.488Z,4.36
2018-12-13T22:30:15.786Z,4.17
2018-12-13T22:32:43.303Z,4.09
2018-12-13T22:35:12.568Z,4.08
2018-12-13T22:37:40.402Z,4.12
2018-12-13T22:40:08.008Z,4.12
2018-12-13T22:42:35.586Z,4.07
2018-12-13T22:45:04.256Z,4.05
2018-12-13T22:47:31.926Z,3.98
2018-12-13T22:50:00.192Z,4.04
2018-12-13T22:52:27.695Z,4.11
2018-12-13T22:54:55.225Z,4.12
2018-12-13T22:57:22.759Z,4.18
2018-12-13T22:59:51.099Z,4.21
2018-12-13T23:02:18.585Z,4.21
2018-12-13T23:04:46.254Z,4.20
2018-12-13T23:07:13.891Z,4.26
2018-12-13T23:09:41.383Z,4.29
2018-12-13T23:12:09.157Z,4.28
2018-12-13T23:14:37.103Z,4.22
2018-12-13T23:17:04.638Z,4.20
2018-12-13T23:19:32.140Z,4.24
2018-12-13T23:22:00.788Z,4.25
2018-12-13T23:24:29.199Z,4.28
2018-12-13T23:26:56.927Z,4.27
2018-12-13T23:29:25.963Z,4.24
2018-12-13T23:31:53.459Z,4.18
2018-12-13T23:34:21.338Z,4.12
2018-12-13T23:36:48.969Z,4.12
2018-12-13T23:39:16.599Z,4.16
2018-12-13T23:41:44.154Z,4.20
2018-12-13T23:44:13.621Z,4.20
2018-12-13T23:46:41.849Z,4.24
2018-12-13T23:49:09.360Z,4.24
2018-12-13T23:51:38.492Z,4.20
2018-12-13T23:54:05.955Z,4.14
2018-12-13T23:56:34.019Z,4.10
2018-12-13T23:59:02.223Z,4.14
